sensor_id;sensor_type;location;lat;lon;timestamp;pressure;altitude;pressure_sealevel;temperature;humidity
5814;BME280;2933;52.302;8.134;2022-08-03T00:04:28;100665.09;;;19.17;82.09
5814;BME280;2933;52.302;8.134;2022-08-03T00:09:30;100669.66;;;19.25;81.99
5814;BME280;2933;52.302;8.134;2022-08-03T00:14:31;100652.97;;;19.15;82.07
5814;BME280;2933;52.302;8.134;2022-08-03T00:19:34;100660.91;;;19.15;82.41
5814;BME280;2933;52.302;8.134;2022-08-03T00:24:36;100662.31;;;19.09;82.73
5814;BME280;2933;52.302;8.134;2022-08-03T00:29:37;100647.47;;;18.88;83.12
5814;BME280;2933;52.302;8.134;2022-08-03T00:34:40;100659.31;;;18.74;83.17
5814;BME280;2933;52.302;8.134;2022-08-03T00:39:42;100647.09;;;18.73;83.42
5814;BME280;2933;52.302;8.134;2022-08-03T00:44:45;100647.91;;;18.74;83.61
5814;BME280;2933;52.302;8.134;2022-08-03T00:49:48;100647.94;;;18.64;84.07
5814;BME280;2933;52.302;8.134;2022-08-03T00:54:49;100649.22;;;18.50;84.55
5814;BME280;2933;52.302;8.134;2022-08-03T00:59:51;100613.16;;;18.39;84.33
5814;BME280;2933;52.302;8.134;2022-08-03T01:04:54;100643.78;;;18.52;84.43
5814;BME280;2933;52.302;8.134;2022-08-03T01:10:00;100634.72;;;18.45;84.16
5814;BME280;2933;52.302;8.134;2022-08-03T01:15:09;100639.47;;;18.41;84.30
5814;BME280;2933;52.302;8.134;2022-08-03T01:20:15;100635.44;;;18.37;84.61
5814;BME280;2933;52.302;8.134;2022-08-03T01:25:27;100640.47;;;18.20;85.43
5814;BME280;2933;52.302;8.134;2022-08-03T01:30:36;100615.69;;;18.02;85.42
5814;BME280;2933;52.302;8.134;2022-08-03T01:35:49;100634.47;;;18.08;85.59
5814;BME280;2933;52.302;8.134;2022-08-03T01:40:55;100633.66;;;18.08;85.59
5814;BME280;2933;52.302;8.134;2022-08-03T01:45:58;100627.50;;;17.88;86.68
5814;BME280;2933;52.302;8.134;2022-08-03T01:51:00;100631.00;;;17.98;86.07
5814;BME280;2933;52.302;8.134;2022-08-03T01:56:04;100629.31;;;17.97;86.01
5814;BME280;2933;52.302;8.134;2022-08-03T02:01:09;100628.75;;;18.03;85.53
5814;BME280;2933;52.302;8.134;2022-08-03T02:06:12;100613.97;;;17.81;85.89
5814;BME280;2933;52.302;8.134;2022-08-03T02:11:14;100606.88;;;17.72;86.49
5814;BME280;2933;52.302;8.134;2022-08-03T02:16:18;100600.47;;;17.65;86.61
5814;BME280;2933;52.302;8.134;2022-08-03T02:21:20;100616.03;;;17.58;87.40
5814;BME280;2933;52.302;8.134;2022-08-03T02:26:23;100612.84;;;17.54;87.04
5814;BME280;2933;52.302;8.134;2022-08-03T02:31:31;100618.41;;;17.61;87.05
5814;BME280;2933;52.302;8.134;2022-08-03T02:36:35;100617.66;;;17.39;87.93
5814;BME280;2933;52.302;8.134;2022-08-03T02:41:41;100618.41;;;17.61;86.95
5814;BME280;2933;52.302;8.134;2022-08-03T02:46:47;100605.56;;;17.47;87.27
5814;BME280;2933;52.302;8.134;2022-08-03T02:51:51;100606.69;;;17.44;86.89
5814;BME280;2933;52.302;8.134;2022-08-03T02:56:55;100608.34;;;17.45;87.51
5814;BME280;2933;52.302;8.134;2022-08-03T03:01:59;100613.94;;;17.52;86.87
5814;BME280;2933;52.302;8.134;2022-08-03T03:07:02;100569.38;;;17.18;86.96
5814;BME280;2933;52.302;8.134;2022-08-03T03:12:05;100607.75;;;17.32;87.58
5814;BME280;2933;52.302;8.134;2022-08-03T03:17:10;100613.31;;;17.28;87.63
5814;BME280;2933;52.302;8.134;2022-08-03T03:22:13;100604.78;;;17.15;88.14
5814;BME280;2933;52.302;8.134;2022-08-03T03:27:15;100598.25;;;17.09;87.86
5814;BME280;2933;52.302;8.134;2022-08-03T03:32:19;100609.53;;;17.21;88.22
5814;BME280;2933;52.302;8.134;2022-08-03T03:37:20;100609.00;;;17.27;87.40
5814;BME280;2933;52.302;8.134;2022-08-03T03:42:24;100576.06;;;16.91;88.20
5814;BME280;2933;52.302;8.134;2022-08-03T03:47:27;100609.06;;;17.06;88.39
5814;BME280;2933;52.302;8.134;2022-08-03T03:52:30;100618.81;;;17.06;88.27
5814;BME280;2933;52.302;8.134;2022-08-03T03:57:33;100613.25;;;17.09;88.30
5814;BME280;2933;52.302;8.134;2022-08-03T04:02:36;100592.78;;;17.01;88.27
5814;BME280;2933;52.302;8.134;2022-08-03T04:07:43;100617.44;;;16.90;88.80
5814;BME280;2933;52.302;8.134;2022-08-03T04:13:06;100618.66;;;17.07;88.61
5814;BME280;2933;52.302;8.134;2022-08-03T04:18:12;100613.53;;;17.06;88.69
5814;BME280;2933;52.302;8.134;2022-08-03T04:23:16;100592.75;;;16.70;90.01
5814;BME280;2933;52.302;8.134;2022-08-03T04:28:22;100601.03;;;16.87;89.82
5814;BME280;2933;52.302;8.134;2022-08-03T04:33:26;100623.66;;;17.10;89.42
5814;BME280;2933;52.302;8.134;2022-08-03T04:38:30;100617.69;;;17.08;89.61
5814;BME280;2933;52.302;8.134;2022-08-03T04:43:33;100621.34;;;17.17;89.57
5814;BME280;2933;52.302;8.134;2022-08-03T04:48:36;100626.38;;;17.30;89.06
5814;BME280;2933;52.302;8.134;2022-08-03T04:53:39;100573.66;;;17.09;89.47
5814;BME280;2933;52.302;8.134;2022-08-03T04:58:41;100607.75;;;17.32;89.88
5814;BME280;2933;52.302;8.134;2022-08-03T05:03:44;100634.66;;;17.56;89.50
5814;BME280;2933;52.302;8.134;2022-08-03T05:08:45;100633.28;;;17.62;90.40
5814;BME280;2933;52.302;8.134;2022-08-03T05:13:47;100637.78;;;17.91;89.62
5814;BME280;2933;52.302;8.134;2022-08-03T05:18:50;100641.03;;;18.14;86.47
5814;BME280;2933;52.302;8.134;2022-08-03T05:23:52;100638.78;;;18.39;86.10
5814;BME280;2933;52.302;8.134;2022-08-03T05:28:53;100629.81;;;18.60;87.29
5814;BME280;2933;52.302;8.134;2022-08-03T05:33:57;100614.78;;;18.70;86.86
5814;BME280;2933;52.302;8.134;2022-08-03T05:38:58;100636.56;;;19.01;84.98
5814;BME280;2933;52.302;8.134;2022-08-03T05:44:00;100637.81;;;19.35;83.59
5814;BME280;2933;52.302;8.134;2022-08-03T05:49:03;100610.44;;;19.44;80.22
5814;BME280;2933;52.302;8.134;2022-08-03T05:54:04;100624.16;;;19.85;77.31
5814;BME280;2933;52.302;8.134;2022-08-03T05:59:06;100642.44;;;20.07;75.43
5814;BME280;2933;52.302;8.134;2022-08-03T06:04:09;100637.56;;;20.20;74.71
5814;BME280;2933;52.302;8.134;2022-08-03T06:09:11;100636.06;;;20.44;74.90
5814;BME280;2933;52.302;8.134;2022-08-03T06:14:12;100640.38;;;20.63;74.23
5814;BME280;2933;52.302;8.134;2022-08-03T06:19:15;100625.88;;;20.75;73.99
5814;BME280;2933;52.302;8.134;2022-08-03T06:24:17;100639.31;;;21.00;73.67
5814;BME280;2933;52.302;8.134;2022-08-03T06:29:19;100628.69;;;21.08;72.97
5814;BME280;2933;52.302;8.134;2022-08-03T06:34:22;100628.41;;;21.20;73.03
5814;BME280;2933;52.302;8.134;2022-08-03T06:39:23;100619.84;;;21.34;72.46
5814;BME280;2933;52.302;8.134;2022-08-03T06:44:25;100638.81;;;21.47;73.18
5814;BME280;2933;52.302;8.134;2022-08-03T06:49:28;100644.06;;;21.74;71.62
5814;BME280;2933;52.302;8.134;2022-08-03T06:54:29;100650.94;;;22.01;70.17
5814;BME280;2933;52.302;8.134;2022-08-03T06:59:31;100614.34;;;21.95;68.96
5814;BME280;2933;52.302;8.134;2022-08-03T07:04:34;100630.97;;;22.30;67.91
5814;BME280;2933;52.302;8.134;2022-08-03T07:09:35;100650.09;;;22.75;65.38
5814;BME280;2933;52.302;8.134;2022-08-03T07:14:37;100650.72;;;22.94;64.12
5814;BME280;2933;52.302;8.134;2022-08-03T07:19:40;100659.66;;;23.26;61.87
5814;BME280;2933;52.302;8.134;2022-08-03T07:24:41;100653.75;;;23.38;62.15
5814;BME280;2933;52.302;8.134;2022-08-03T07:29:43;100660.91;;;23.46;60.98
5814;BME280;2933;52.302;8.134;2022-08-03T07:34:47;100656.44;;;23.70;61.34
5814;BME280;2933;52.302;8.134;2022-08-03T07:39:48;100663.56;;;23.78;59.93
5814;BME280;2933;52.302;8.134;2022-08-03T07:44:50;100665.38;;;24.09;59.53
5814;BME280;2933;52.302;8.134;2022-08-03T07:49:53;100667.28;;;24.23;59.16
5814;BME280;2933;52.302;8.134;2022-08-03T07:54:55;100662.16;;;24.36;58.19
5814;BME280;2933;52.302;8.134;2022-08-03T07:59:56;100659.69;;;24.50;57.63
5814;BME280;2933;52.302;8.134;2022-08-03T08:05:00;100664.25;;;24.64;57.33
5814;BME280;2933;52.302;8.134;2022-08-03T08:10:02;100665.03;;;24.73;56.78
5814;BME280;2933;52.302;8.134;2022-08-03T08:15:05;100664.50;;;24.93;57.09
5814;BME280;2933;52.302;8.134;2022-08-03T08:20:10;100650.00;;;25.02;55.54
5814;BME280;2933;52.302;8.134;2022-08-03T08:25:12;100662.34;;;25.33;54.87
5814;BME280;2933;52.302;8.134;2022-08-03T08:30:16;100653.41;;;25.41;55.50
5814;BME280;2933;52.302;8.134;2022-08-03T08:35:19;100618.44;;;25.27;53.99
5814;BME280;2933;52.302;8.134;2022-08-03T08:40:21;100659.34;;;25.73;53.32
5814;BME280;2933;52.302;8.134;2022-08-03T08:45:23;100627.34;;;25.64;52.77
5814;BME280;2933;52.302;8.134;2022-08-03T08:50:26;100659.41;;;26.01;52.91
5814;BME280;2933;52.302;8.134;2022-08-03T08:55:29;100652.66;;;26.27;53.83
5814;BME280;2933;52.302;8.134;2022-08-03T09:00:31;100660.69;;;26.27;51.88
5814;BME280;2933;52.302;8.134;2022-08-03T09:05:34;100661.31;;;26.51;55.16
5814;BME280;2933;52.302;8.134;2022-08-03T09:10:37;100660.88;;;26.25;51.82
5814;BME280;2933;52.302;8.134;2022-08-03T09:15:39;100664.34;;;26.19;52.40
5814;BME280;2933;52.302;8.134;2022-08-03T09:20:43;100664.00;;;26.51;51.55
5814;BME280;2933;52.302;8.134;2022-08-03T09:25:44;100657.75;;;26.72;50.99
5814;BME280;2933;52.302;8.134;2022-08-03T09:30:57;100665.19;;;27.05;50.73
5814;BME280;2933;52.302;8.134;2022-08-03T09:36:00;100654.50;;;27.12;50.27
5814;BME280;2933;52.302;8.134;2022-08-03T09:41:02;100660.25;;;27.08;50.37
5814;BME280;2933;52.302;8.134;2022-08-03T09:46:05;100660.75;;;27.32;51.14
5814;BME280;2933;52.302;8.134;2022-08-03T09:51:08;100634.09;;;27.24;49.45
5814;BME280;2933;52.302;8.134;2022-08-03T09:56:11;100653.13;;;27.29;49.47
5814;BME280;2933;52.302;8.134;2022-08-03T10:01:13;100651.75;;;27.40;49.66
5814;BME280;2933;52.302;8.134;2022-08-03T10:06:18;100653.28;;;27.69;48.74
5814;BME280;2933;52.302;8.134;2022-08-03T10:11:28;100648.16;;;27.81;48.33
5814;BME280;2933;52.302;8.134;2022-08-03T10:16:35;100656.84;;;28.03;47.55
5814;BME280;2933;52.302;8.134;2022-08-03T10:21:39;100655.38;;;28.01;47.09
5814;BME280;2933;52.302;8.134;2022-08-03T10:26:43;100652.28;;;27.97;47.01
5814;BME280;2933;52.302;8.134;2022-08-03T10:31:46;100640.47;;;27.65;47.48
5814;BME280;2933;52.302;8.134;2022-08-03T10:36:52;100638.41;;;27.67;46.81
5814;BME280;2933;52.302;8.134;2022-08-03T10:41:56;100658.72;;;27.96;47.52
5814;BME280;2933;52.302;8.134;2022-08-03T10:46:59;100650.75;;;27.48;48.26
5814;BME280;2933;52.302;8.134;2022-08-03T10:52:03;100647.22;;;27.40;47.85
5814;BME280;2933;52.302;8.134;2022-08-03T10:57:05;100651.91;;;27.38;47.30
5814;BME280;2933;52.302;8.134;2022-08-03T11:08:29;100649.56;;;27.70;46.92
5814;BME280;2933;52.302;8.134;2022-08-03T11:13:31;100637.47;;;28.21;46.70
5814;BME280;2933;52.302;8.134;2022-08-03T11:18:33;100634.13;;;27.99;46.25
5814;BME280;2933;52.302;8.134;2022-08-03T11:23:45;100636.22;;;28.37;46.89
5814;BME280;2933;52.302;8.134;2022-08-03T11:28:48;100636.81;;;28.53;46.75
5814;BME280;2933;52.302;8.134;2022-08-03T11:34:02;100639.28;;;28.54;46.92
5814;BME280;2933;52.302;8.134;2022-08-03T11:39:15;100627.38;;;29.16;46.88
5814;BME280;2933;52.302;8.134;2022-08-03T11:44:40;100629.16;;;29.42;46.22
5814;BME280;2933;52.302;8.134;2022-08-03T11:49:43;100627.88;;;29.45;43.90
5814;BME280;2933;52.302;8.134;2022-08-03T11:54:53;100622.56;;;29.70;43.01
5814;BME280;2933;52.302;8.134;2022-08-03T11:59:55;100633.38;;;29.63;43.30
5814;BME280;2933;52.302;8.134;2022-08-03T12:04:59;100624.59;;;29.75;41.98
5814;BME280;2933;52.302;8.134;2022-08-03T12:10:11;100612.78;;;29.44;43.11
5814;BME280;2933;52.302;8.134;2022-08-03T12:15:15;100617.69;;;29.54;42.63
5814;BME280;2933;52.302;8.134;2022-08-03T12:20:23;100612.09;;;29.94;42.72
5814;BME280;2933;52.302;8.134;2022-08-03T12:25:33;100610.44;;;29.86;41.64
5814;BME280;2933;52.302;8.134;2022-08-03T12:30:37;100613.59;;;30.59;41.27
5814;BME280;2933;52.302;8.134;2022-08-03T12:35:42;100612.41;;;30.48;40.08
5814;BME280;2933;52.302;8.134;2022-08-03T12:40:54;100605.31;;;30.35;40.26
5814;BME280;2933;52.302;8.134;2022-08-03T12:46:13;100609.09;;;30.46;41.15
5814;BME280;2933;52.302;8.134;2022-08-03T12:51:21;100606.53;;;30.58;39.49
5814;BME280;2933;52.302;8.134;2022-08-03T12:56:27;100598.56;;;30.70;38.81
5814;BME280;2933;52.302;8.134;2022-08-03T13:01:36;100587.69;;;30.58;39.20
5814;BME280;2933;52.302;8.134;2022-08-03T13:06:37;100587.22;;;30.79;38.51
5814;BME280;2933;52.302;8.134;2022-08-03T13:11:42;100593.06;;;30.76;39.24
5814;BME280;2933;52.302;8.134;2022-08-03T13:16:47;100586.53;;;30.66;37.41
5814;BME280;2933;52.302;8.134;2022-08-03T13:21:49;100571.94;;;30.73;37.13
5814;BME280;2933;52.302;8.134;2022-08-03T13:26:54;100582.53;;;31.05;36.08
5814;BME280;2933;52.302;8.134;2022-08-03T13:31:55;100578.59;;;31.08;38.03
5814;BME280;2933;52.302;8.134;2022-08-03T13:36:57;100561.88;;;31.18;38.46
5814;BME280;2933;52.302;8.134;2022-08-03T13:42:06;100574.53;;;31.48;35.88
5814;BME280;2933;52.302;8.134;2022-08-03T13:47:10;100560.81;;;31.19;34.70
5814;BME280;2933;52.302;8.134;2022-08-03T13:52:18;100579.13;;;31.59;34.04
5814;BME280;2933;52.302;8.134;2022-08-03T13:57:24;100557.66;;;31.22;33.83
5814;BME280;2933;52.302;8.134;2022-08-03T14:02:27;100573.44;;;31.37;35.55
5814;BME280;2933;52.302;8.134;2022-08-03T14:07:32;100569.03;;;31.54;34.81
5814;BME280;2933;52.302;8.134;2022-08-03T14:12:38;100539.56;;;31.53;34.78
5814;BME280;2933;52.302;8.134;2022-08-03T14:17:41;100556.88;;;31.64;34.47
5814;BME280;2933;52.302;8.134;2022-08-03T14:22:48;100543.16;;;31.35;34.57
5814;BME280;2933;52.302;8.134;2022-08-03T14:28:00;100516.13;;;31.65;34.72
5814;BME280;2933;52.302;8.134;2022-08-03T14:33:04;100551.38;;;31.82;33.24
5814;BME280;2933;52.302;8.134;2022-08-03T14:38:10;100550.41;;;31.65;33.68
5814;BME280;2933;52.302;8.134;2022-08-03T14:43:16;100544.03;;;31.59;34.79
5814;BME280;2933;52.302;8.134;2022-08-03T14:48:21;100547.63;;;31.41;33.36
5814;BME280;2933;52.302;8.134;2022-08-03T14:53:26;100546.28;;;31.01;34.59
5814;BME280;2933;52.302;8.134;2022-08-03T14:58:38;100547.81;;;30.97;35.46
5814;BME280;2933;52.302;8.134;2022-08-03T15:03:42;100534.94;;;30.62;35.52
5814;BME280;2933;52.302;8.134;2022-08-03T15:08:48;100538.09;;;30.77;35.99
5814;BME280;2933;52.302;8.134;2022-08-03T15:13:55;100534.63;;;31.07;36.13
5814;BME280;2933;52.302;8.134;2022-08-03T15:19:02;100520.13;;;31.20;36.29
5814;BME280;2933;52.302;8.134;2022-08-03T15:24:05;100510.38;;;31.01;35.45
5814;BME280;2933;52.302;8.134;2022-08-03T15:29:18;100527.53;;;31.25;35.28
5814;BME280;2933;52.302;8.134;2022-08-03T15:34:33;100517.69;;;31.31;33.89
5814;BME280;2933;52.302;8.134;2022-08-03T15:39:37;100520.94;;;31.21;34.89
5814;BME280;2933;52.302;8.134;2022-08-03T15:44:52;100519.31;;;31.32;35.22
5814;BME280;2933;52.302;8.134;2022-08-03T15:49:57;100516.78;;;31.37;33.80
5814;BME280;2933;52.302;8.134;2022-08-03T15:55:02;100508.00;;;31.53;34.46
5814;BME280;2933;52.302;8.134;2022-08-03T16:00:08;100504.53;;;31.22;34.79
5814;BME280;2933;52.302;8.134;2022-08-03T16:05:12;100511.34;;;31.06;35.41
5814;BME280;2933;52.302;8.134;2022-08-03T16:10:20;100504.66;;;30.97;35.05
5814;BME280;2933;52.302;8.134;2022-08-03T16:15:25;100510.22;;;30.84;36.89
5814;BME280;2933;52.302;8.134;2022-08-03T16:20:28;100514.94;;;30.88;36.85
5814;BME280;2933;52.302;8.134;2022-08-03T16:25:31;100491.78;;;30.81;36.55
5814;BME280;2933;52.302;8.134;2022-08-03T16:30:39;100504.69;;;30.78;37.15
5814;BME280;2933;52.302;8.134;2022-08-03T16:35:42;100504.63;;;30.67;36.96
5814;BME280;2933;52.302;8.134;2022-08-03T16:40:44;100506.19;;;30.74;37.27
5814;BME280;2933;52.302;8.134;2022-08-03T16:45:47;100496.44;;;30.73;36.65
5814;BME280;2933;52.302;8.134;2022-08-03T16:50:51;100490.13;;;30.49;37.04
5814;BME280;2933;52.302;8.134;2022-08-03T16:55:54;100496.13;;;30.51;36.94
5814;BME280;2933;52.302;8.134;2022-08-03T17:00:59;100492.56;;;30.32;36.92
5814;BME280;2933;52.302;8.134;2022-08-03T17:06:03;100490.25;;;30.36;37.07
5814;BME280;2933;52.302;8.134;2022-08-03T17:11:18;100495.38;;;30.19;37.83
5814;BME280;2933;52.302;8.134;2022-08-03T17:16:22;100494.34;;;30.38;37.46
5814;BME280;2933;52.302;8.134;2022-08-03T17:21:26;100496.47;;;30.36;37.53
5814;BME280;2933;52.302;8.134;2022-08-03T17:26:30;100489.19;;;30.18;38.97
5814;BME280;2933;52.302;8.134;2022-08-03T17:31:41;100485.88;;;29.97;38.83
5814;BME280;2933;52.302;8.134;2022-08-03T17:36:45;100465.00;;;29.93;37.54
5814;BME280;2933;52.302;8.134;2022-08-03T17:41:49;100481.25;;;29.79;39.17
5814;BME280;2933;52.302;8.134;2022-08-03T17:46:56;100478.56;;;29.79;38.08
5814;BME280;2933;52.302;8.134;2022-08-03T17:52:02;100464.25;;;29.60;38.45
5814;BME280;2933;52.302;8.134;2022-08-03T17:57:08;100485.59;;;29.55;39.67
5814;BME280;2933;52.302;8.134;2022-08-03T18:02:29;100513.34;;;29.56;39.94
5814;BME280;2933;52.302;8.134;2022-08-03T18:07:55;100515.50;;;29.40;40.58
5814;BME280;2933;52.302;8.134;2022-08-03T18:13:08;100511.47;;;29.24;40.06
5814;BME280;2933;52.302;8.134;2022-08-03T18:18:15;100497.16;;;28.92;42.27
5814;BME280;2933;52.302;8.134;2022-08-03T18:23:18;100505.09;;;28.80;43.56
5814;BME280;2933;52.302;8.134;2022-08-03T18:28:24;100499.22;;;28.37;45.61
5814;BME280;2933;52.302;8.134;2022-08-03T18:33:28;100484.84;;;28.05;46.65
5814;BME280;2933;52.302;8.134;2022-08-03T18:38:34;100487.94;;;27.75;47.72
5814;BME280;2933;52.302;8.134;2022-08-03T18:43:40;100500.53;;;27.74;48.22
5814;BME280;2933;52.302;8.134;2022-08-03T18:48:54;100517.25;;;27.56;48.91
5814;BME280;2933;52.302;8.134;2022-08-03T18:54:06;100507.53;;;27.42;49.42
5814;BME280;2933;52.302;8.134;2022-08-03T18:59:18;100527.09;;;27.29;50.43
5814;BME280;2933;52.302;8.134;2022-08-03T19:04:30;100510.09;;;27.02;51.11
5814;BME280;2933;52.302;8.134;2022-08-03T19:09:46;100530.25;;;26.91;52.18
5814;BME280;2933;52.302;8.134;2022-08-03T19:14:55;100535.81;;;26.54;53.88
5814;BME280;2933;52.302;8.134;2022-08-03T19:20:10;100530.66;;;26.18;54.44
5814;BME280;2933;52.302;8.134;2022-08-03T19:25:16;100554.91;;;26.09;55.55
5814;BME280;2933;52.302;8.134;2022-08-03T19:30:21;100552.97;;;26.03;56.03
5814;BME280;2933;52.302;8.134;2022-08-03T19:35:46;100546.66;;;25.83;57.39
5814;BME280;2933;52.302;8.134;2022-08-03T19:41:00;100554.03;;;25.80;58.15
5814;BME280;2933;52.302;8.134;2022-08-03T19:46:11;100550.69;;;25.35;59.89
5814;BME280;2933;52.302;8.134;2022-08-03T19:51:27;100519.97;;;25.31;59.54
5814;BME280;2933;52.302;8.134;2022-08-03T19:56:32;100553.31;;;25.13;61.58
5814;BME280;2933;52.302;8.134;2022-08-03T20:01:46;100523.72;;;24.78;62.14
5814;BME280;2933;52.302;8.134;2022-08-03T20:06:52;100546.38;;;24.67;63.61
5814;BME280;2933;52.302;8.134;2022-08-03T20:12:07;100561.28;;;24.47;63.36
5814;BME280;2933;52.302;8.134;2022-08-03T20:17:10;100567.97;;;24.58;63.24
5814;BME280;2933;52.302;8.134;2022-08-03T20:22:14;100568.44;;;24.46;64.72
5814;BME280;2933;52.302;8.134;2022-08-03T20:27:17;100544.38;;;24.16;65.17
5814;BME280;2933;52.302;8.134;2022-08-03T20:32:21;100563.47;;;24.28;64.45
5814;BME280;2933;52.302;8.134;2022-08-03T20:37:23;100564.53;;;24.19;64.69
5814;BME280;2933;52.302;8.134;2022-08-03T20:42:25;100563.78;;;24.10;64.05
5814;BME280;2933;52.302;8.134;2022-08-03T20:47:27;100575.44;;;23.94;66.18
5814;BME280;2933;52.302;8.134;2022-08-03T20:52:31;100569.91;;;23.72;66.25
5814;BME280;2933;52.302;8.134;2022-08-03T20:57:33;100553.47;;;23.61;66.71
5814;BME280;2933;52.302;8.134;2022-08-03T21:02:35;100550.56;;;23.24;68.82
5814;BME280;2933;52.302;8.134;2022-08-03T21:07:41;100562.59;;;23.20;69.11
5814;BME280;2933;52.302;8.134;2022-08-03T21:12:49;100546.78;;;23.10;69.19
5814;BME280;2933;52.302;8.134;2022-08-03T21:17:54;100553.06;;;23.17;69.17
5814;BME280;2933;52.302;8.134;2022-08-03T21:22:59;100573.72;;;23.15;69.32
5814;BME280;2933;52.302;8.134;2022-08-03T21:28:04;100578.31;;;22.90;70.38
5814;BME280;2933;52.302;8.134;2022-08-03T21:33:07;100569.38;;;22.83;70.78
5814;BME280;2933;52.302;8.134;2022-08-03T21:38:14;100564.63;;;22.62;71.26
5814;BME280;2933;52.302;8.134;2022-08-03T21:43:21;100574.41;;;22.61;71.09
5814;BME280;2933;52.302;8.134;2022-08-03T21:48:24;100566.75;;;22.66;69.57
5814;BME280;2933;52.302;8.134;2022-08-03T21:53:28;100571.28;;;22.49;71.21
5814;BME280;2933;52.302;8.134;2022-08-03T21:58:37;100561.13;;;22.36;71.06
5814;BME280;2933;52.302;8.134;2022-08-03T22:03:41;100556.97;;;22.34;70.92
5814;BME280;2933;52.302;8.134;2022-08-03T22:08:45;100543.38;;;22.12;71.92
5814;BME280;2933;52.302;8.134;2022-08-03T22:13:47;100551.53;;;22.02;72.54
5814;BME280;2933;52.302;8.134;2022-08-03T22:18:48;100556.00;;;22.18;72.03
5814;BME280;2933;52.302;8.134;2022-08-03T22:23:52;100545.53;;;22.00;72.65
5814;BME280;2933;52.302;8.134;2022-08-03T22:28:56;100558.03;;;21.83;73.49
5814;BME280;2933;52.302;8.134;2022-08-03T22:33:57;100549.53;;;21.79;73.63
5814;BME280;2933;52.302;8.134;2022-08-03T22:39:00;100553.34;;;21.69;74.34
5814;BME280;2933;52.302;8.134;2022-08-03T22:44:02;100560.50;;;21.76;73.66
5814;BME280;2933;52.302;8.134;2022-08-03T22:49:04;100559.16;;;21.64;74.39
5814;BME280;2933;52.302;8.134;2022-08-03T22:54:09;100520.72;;;21.34;74.64
5814;BME280;2933;52.302;8.134;2022-08-03T22:59:11;100565.56;;;21.53;74.76
5814;BME280;2933;52.302;8.134;2022-08-03T23:04:13;100563.56;;;21.47;74.79
5814;BME280;2933;52.302;8.134;2022-08-03T23:09:18;100553.31;;;21.52;74.79
5814;BME280;2933;52.302;8.134;2022-08-03T23:14:23;100550.75;;;21.34;75.56
5814;BME280;2933;52.302;8.134;2022-08-03T23:19:29;100557.28;;;21.40;75.34
5814;BME280;2933;52.302;8.134;2022-08-03T23:24:34;100552.94;;;21.39;75.18
5814;BME280;2933;52.302;8.134;2022-08-03T23:29:38;100554.41;;;21.25;75.60
5814;BME280;2933;52.302;8.134;2022-08-03T23:34:40;100556.84;;;21.10;76.39
5814;BME280;2933;52.302;8.134;2022-08-03T23:40:03;100553.50;;;21.08;76.62
5814;BME280;2933;52.302;8.134;2022-08-03T23:45:06;100546.69;;;21.05;76.51
5814;BME280;2933;52.302;8.134;2022-08-03T23:50:08;100549.66;;;21.02;76.77
5814;BME280;2933;52.302;8.134;2022-08-03T23:55:15;100550.69;;;21.01;77.33
